METAR Data
IDs: Format: Raw Decoded Include TAF

Data at: 0217 UTC 25 Feb 2021

ZBAA 250200Z 30002MPS 260V050 8000 NSC 03/M05 Q1028 NOSIG